createdAt,value
2018-08-30T00:01:12.530Z,9.57
2018-08-30T00:03:40.421Z,9.07
2018-08-30T00:06:08.293Z,8.07
2018-08-30T00:08:36.166Z,10.10
2018-08-30T00:11:04.577Z,9.93
2018-08-30T00:13:32.525Z,9.63
2018-08-30T00:16:00.382Z,8.10
2018-08-30T00:18:28.256Z,7.20
2018-08-30T00:20:56.334Z,8.27
2018-08-30T00:23:24.188Z,10.90
2018-08-30T00:25:52.046Z,7.57
2018-08-30T00:28:19.956Z,8.13
2018-08-30T00:30:49.845Z,11.07
2018-08-30T00:33:17.895Z,10.90
2018-08-30T00:35:45.977Z,8.03
2018-08-30T00:38:14.415Z,8.53
2018-08-30T00:40:42.435Z,8.10
2018-08-30T00:43:10.924Z,9.63
2018-08-30T00:45:39.392Z,8.40
2018-08-30T00:48:07.282Z,9.03
2018-08-30T00:50:35.317Z,8.57
2018-08-30T00:53:03.147Z,7.97
2018-08-30T00:55:31.262Z,9.43
2018-08-30T00:57:59.117Z,6.97
2018-08-30T01:00:26.991Z,9.37
2018-08-30T01:02:54.864Z,8.47
2018-08-30T01:05:22.785Z,6.90
2018-08-30T01:07:50.766Z,6.80
2018-08-30T01:10:18.672Z,6.77
2018-08-30T01:12:52.078Z,7.10
2018-08-30T01:15:20.189Z,5.77
2018-08-30T01:17:48.598Z,7.17
2018-08-30T01:20:16.774Z,5.10
2018-08-30T01:22:44.837Z,6.07
2018-08-30T01:25:12.718Z,4.23
2018-08-30T01:27:40.769Z,4.40
2018-08-30T01:30:09.053Z,5.40
2018-08-30T01:32:36.997Z,7.17
2018-08-30T01:35:05.143Z,5.73
2018-08-30T01:37:33.051Z,7.40
2018-08-30T01:40:01.038Z,3.80
2018-08-30T01:42:29.059Z,6.80
2018-08-30T01:44:57.204Z,4.73
2018-08-30T01:47:25.445Z,6.27
2018-08-30T01:49:53.307Z,5.30
2018-08-30T01:52:21.246Z,4.87
2018-08-30T01:54:49.087Z,3.87
2018-08-30T01:57:16.949Z,3.93
2018-08-30T01:59:44.829Z,5.43
2018-08-30T02:02:13.990Z,4.87
2018-08-30T02:04:41.839Z,5.73
2018-08-30T02:07:09.705Z,5.83
2018-08-30T02:09:37.568Z,6.33
2018-08-30T02:12:05.424Z,5.27
2018-08-30T02:14:33.713Z,6.37
2018-08-30T02:17:01.823Z,5.37
2018-08-30T02:19:29.654Z,8.40
2018-08-30T02:21:57.581Z,6.23
2018-08-30T02:24:25.502Z,5.73
2018-08-30T02:26:53.830Z,4.67
2018-08-30T02:29:21.737Z,5.47
2018-08-30T02:31:49.572Z,8.00
2018-08-30T02:34:17.445Z,5.80
2018-08-30T02:36:45.968Z,8.47
2018-08-30T02:39:13.871Z,5.57
2018-08-30T02:41:41.787Z,6.83
2018-08-30T02:44:10.342Z,5.63
2018-08-30T02:46:38.167Z,5.60
2018-08-30T02:49:06.172Z,7.17
2018-08-30T02:51:34.562Z,8.50
2018-08-30T02:54:02.488Z,5.93
2018-08-30T02:56:30.905Z,8.43
2018-08-30T02:58:58.913Z,5.90
2018-08-30T03:01:26.800Z,6.33
2018-08-30T03:03:54.706Z,6.90
2018-08-30T03:06:22.778Z,5.77
2018-08-30T03:08:50.658Z,5.93
2018-08-30T03:11:19.145Z,8.87
2018-08-30T03:13:47.094Z,8.13
2018-08-30T03:16:14.918Z,9.93
2018-08-30T03:18:43.430Z,6.30
2018-08-30T03:21:11.302Z,7.47
2018-08-30T03:23:39.361Z,9.27
2018-08-30T03:26:07.461Z,7.40
2018-08-30T03:28:35.342Z,8.87
2018-08-30T03:31:03.287Z,7.20
2018-08-30T03:33:31.454Z,9.03
2018-08-30T03:36:01.276Z,7.87
2018-08-30T03:38:29.241Z,8.40
2018-08-30T03:40:57.366Z,8.10
2018-08-30T03:43:25.218Z,9.83
2018-08-30T03:45:53.225Z,10.20
2018-08-30T03:48:21.054Z,10.73
2018-08-30T03:50:49.002Z,11.93
2018-08-30T03:53:16.810Z,12.00
2018-08-30T03:55:45.628Z,13.53
2018-08-30T03:58:13.488Z,11.50
2018-08-30T04:00:41.962Z,12.73
2018-08-30T04:03:10.277Z,14.93
2018-08-30T04:05:38.169Z,14.10
2018-08-30T04:08:06.024Z,14.27
2018-08-30T04:10:34.090Z,14.93
2018-08-30T04:13:01.982Z,18.60
2018-08-30T04:15:29.880Z,16.20
2018-08-30T04:17:57.884Z,18.90
2018-08-30T04:20:26.054Z,18.00
2018-08-30T04:22:54.040Z,17.80
2018-08-30T04:25:22.093Z,17.93
2018-08-30T04:27:49.936Z,20.50
2018-08-30T04:30:17.822Z,20.60
2018-08-30T04:32:45.852Z,24.20
2018-08-30T04:35:13.744Z,19.70
2018-08-30T04:37:41.626Z,21.10
2018-08-30T04:40:09.520Z,23.27
2018-08-30T04:42:37.580Z,20.57
2018-08-30T04:45:06.025Z,22.07
2018-08-30T04:47:33.864Z,24.40
2018-08-30T04:50:01.914Z,20.60
2018-08-30T04:52:29.841Z,24.53
2018-08-30T04:54:57.708Z,22.13
2018-08-30T04:57:25.562Z,21.73
2018-08-30T04:59:53.470Z,20.40
2018-08-30T05:02:21.314Z,19.20
2018-08-30T05:04:49.371Z,22.20
2018-08-30T05:07:17.308Z,17.67
2018-08-30T05:09:45.238Z,19.67
2018-08-30T05:12:13.130Z,19.60
2018-08-30T05:14:40.977Z,19.27
2018-08-30T05:17:08.859Z,20.57
2018-08-30T05:19:36.806Z,22.77
2018-08-30T05:22:04.643Z,22.07
2018-08-30T05:24:32.573Z,20.50
2018-08-30T05:27:00.515Z,18.43
2018-08-30T05:29:28.561Z,16.77
2018-08-30T05:31:56.529Z,18.83
2018-08-30T05:34:24.469Z,18.07
2018-08-30T05:36:52.330Z,17.93
2018-08-30T05:39:20.203Z,18.20
2018-08-30T05:41:48.285Z,17.90
2018-08-30T05:44:16.208Z,18.93
2018-08-30T05:46:45.093Z,19.07
2018-08-30T05:49:13.043Z,15.93
2018-08-30T05:51:40.975Z,16.27
2018-08-30T05:54:09.282Z,16.50
2018-08-30T05:56:37.309Z,18.07
2018-08-30T05:59:05.171Z,16.97
2018-08-30T06:01:33.349Z,19.10
2018-08-30T06:04:01.497Z,18.67
2018-08-30T06:06:29.371Z,15.60
2018-08-30T06:08:57.245Z,16.00
2018-08-30T06:11:25.439Z,19.00
2018-08-30T06:13:53.405Z,19.00
2018-08-30T06:16:21.261Z,14.63
2018-08-30T06:18:49.128Z,16.17
2018-08-30T06:21:17.023Z,16.13
2018-08-30T06:23:44.873Z,17.53
2018-08-30T06:26:12.931Z,15.77
2018-08-30T06:28:40.889Z,15.03
2018-08-30T06:31:10.599Z,13.83
2018-08-30T06:33:38.817Z,16.07
2018-08-30T06:36:06.753Z,14.70
2018-08-30T06:38:34.744Z,13.80
2018-08-30T06:41:02.603Z,13.33
2018-08-30T06:43:30.457Z,13.20
2018-08-30T06:45:59.787Z,10.87
2018-08-30T06:48:27.636Z,13.07
2018-08-30T06:50:56.957Z,11.53
2018-08-30T06:53:24.986Z,9.07
2018-08-30T06:55:52.858Z,10.03
2018-08-30T06:58:20.963Z,10.57
2018-08-30T07:00:48.787Z,8.87
2018-08-30T07:03:16.689Z,9.07
2018-08-30T07:05:44.528Z,8.93
2018-08-30T07:08:13.217Z,7.57
2018-08-30T07:10:41.333Z,7.37
2018-08-30T07:13:09.250Z,7.87
2018-08-30T07:15:37.256Z,6.47
2018-08-30T07:18:05.150Z,6.87
2018-08-30T07:20:33.158Z,6.23
2018-08-30T07:23:01.414Z,6.47
2018-08-30T07:25:29.296Z,5.60
2018-08-30T07:27:57.176Z,5.80
2018-08-30T07:30:25.127Z,5.90
2018-08-30T07:32:53.071Z,5.23
2018-08-30T07:35:20.916Z,5.40
2018-08-30T07:37:49.199Z,5.80
2018-08-30T07:40:19.504Z,6.07
2018-08-30T07:42:47.532Z,6.90
2018-08-30T07:45:15.394Z,5.80
2018-08-30T07:47:43.486Z,4.10
2018-08-30T07:50:11.373Z,5.00
2018-08-30T07:52:39.549Z,4.73
2018-08-30T07:55:07.727Z,3.87
2018-08-30T07:57:35.886Z,5.60
2018-08-30T08:00:04.157Z,6.53
2018-08-30T08:02:31.942Z,4.60
2018-08-30T08:05:00.573Z,5.67
2018-08-30T08:07:36.378Z,4.60
2018-08-30T08:10:04.276Z,3.97
2018-08-30T08:12:32.384Z,3.97
2018-08-30T08:15:00.272Z,2.67
2018-08-30T08:17:28.198Z,3.30
2018-08-30T08:19:56.198Z,2.77
2018-08-30T08:22:24.039Z,2.97
2018-08-30T08:24:55.577Z,2.53
2018-08-30T08:27:24.278Z,2.20
2018-08-30T08:29:52.114Z,2.30
2018-08-30T08:32:19.995Z,2.23
2018-08-30T08:34:47.888Z,2.70
2018-08-30T08:37:15.806Z,1.83
2018-08-30T08:39:43.817Z,2.37
2018-08-30T08:42:11.784Z,2.27
2018-08-30T08:44:40.546Z,2.90
2018-08-30T08:47:08.517Z,2.47
2018-08-30T08:49:37.416Z,4.63
2018-08-30T08:52:05.308Z,2.10
2018-08-30T08:54:34.119Z,2.90
2018-08-30T08:57:02.058Z,2.67
2018-08-30T08:59:32.524Z,2.60
2018-08-30T09:02:00.361Z,3.10
2018-08-30T09:04:28.242Z,2.30
2018-08-30T09:06:57.602Z,2.87
2018-08-30T09:09:26.142Z,2.43
2018-08-30T09:12:06.449Z,1.90
2018-08-30T09:17:12.189Z,5.33
2018-08-30T09:19:40.150Z,5.13
2018-08-30T09:22:08.089Z,5.43
2018-08-30T09:24:35.987Z,7.13
2018-08-30T09:27:04.390Z,5.93
2018-08-30T09:29:33.408Z,8.17
2018-08-30T09:32:01.966Z,6.43
2018-08-30T09:34:30.143Z,7.43
2018-08-30T09:36:58.063Z,9.50
2018-08-30T09:39:26.042Z,10.00
2018-08-30T09:41:54.008Z,7.47
2018-08-30T09:44:21.898Z,9.33
2018-08-30T09:46:50.045Z,8.73
2018-08-30T09:49:18.043Z,8.97
2018-08-30T09:51:46.099Z,12.00
2018-08-30T09:54:13.974Z,9.07
2018-08-30T09:56:42.078Z,8.83
2018-08-30T09:59:09.898Z,8.93
2018-08-30T10:01:43.501Z,11.53
2018-08-30T10:04:11.397Z,9.80
2018-08-30T10:06:39.264Z,9.23
2018-08-30T10:09:07.958Z,9.63
2018-08-30T10:11:35.850Z,12.00
2018-08-30T10:14:03.794Z,12.13
2018-08-30T10:16:31.953Z,11.80
2018-08-30T10:19:00.594Z,16.10
2018-08-30T10:21:30.341Z,11.47
2018-08-30T10:23:58.883Z,11.10
2018-08-30T10:26:26.866Z,10.50
2018-08-30T10:28:54.753Z,13.07
2018-08-30T10:31:22.872Z,12.47
2018-08-30T10:33:50.891Z,11.17
2018-08-30T10:36:20.215Z,12.53
2018-08-30T10:38:48.692Z,11.33
2018-08-30T10:41:16.585Z,12.60
2018-08-30T10:43:44.489Z,12.90
2018-08-30T10:46:12.473Z,11.83
2018-08-30T10:48:40.361Z,11.27
2018-08-30T10:51:08.244Z,13.03
2018-08-30T10:53:36.222Z,13.97
2018-08-30T10:56:04.212Z,14.37
2018-08-30T10:58:32.394Z,12.10
2018-08-30T11:01:00.267Z,13.17
2018-08-30T11:03:28.473Z,16.20
2018-08-30T11:05:56.375Z,14.20
2018-08-30T11:08:24.275Z,12.60
2018-08-30T11:10:52.168Z,12.87
2018-08-30T11:13:20.091Z,12.37
2018-08-30T11:15:48.791Z,12.23
2018-08-30T11:18:16.782Z,12.97
2018-08-30T11:20:44.911Z,12.33
2018-08-30T11:23:12.892Z,11.60
2018-08-30T11:25:40.809Z,12.37
2018-08-30T11:28:09.203Z,14.23
2018-08-30T11:30:37.139Z,11.07
2018-08-30T11:33:06.993Z,12.63
2018-08-30T11:35:34.913Z,13.10
2018-08-30T11:38:02.894Z,14.20
2018-08-30T11:40:31.042Z,10.90
2018-08-30T11:42:59.084Z,13.67
2018-08-30T11:45:27.084Z,12.23
2018-08-30T11:47:56.014Z,11.30
2018-08-30T11:50:24.395Z,12.50
2018-08-30T11:52:52.276Z,10.93
2018-08-30T11:55:20.152Z,10.17
2018-08-30T11:57:48.062Z,13.93
2018-08-30T12:05:21.228Z,9.67
2018-08-30T12:07:49.618Z,11.67
2018-08-30T12:10:17.527Z,11.20
2018-08-30T12:12:45.608Z,7.77
2018-08-30T12:15:13.554Z,11.27
2018-08-30T12:17:42.672Z,11.93
2018-08-30T12:20:10.548Z,7.93
2018-08-30T12:22:38.428Z,9.03
2018-08-30T12:25:06.523Z,9.38
2018-08-30T12:27:34.402Z,8.43
2018-08-30T12:30:02.333Z,7.58
2018-08-30T12:32:30.400Z,8.58
2018-08-30T12:34:58.311Z,8.05
2018-08-30T12:37:26.209Z,8.75
2018-08-30T12:39:54.633Z,8.35
2018-08-30T12:42:22.870Z,9.00
2018-08-30T12:44:51.398Z,8.53
2018-08-30T12:47:19.994Z,10.35
2018-08-30T12:49:48.451Z,7.60
2018-08-30T12:52:16.589Z,7.55
2018-08-30T12:54:44.650Z,8.75
2018-08-30T12:57:13.244Z,8.10
2018-08-30T12:59:42.711Z,7.60
2018-08-30T13:04:34.739Z,14.07
2018-08-30T13:07:02.506Z,9.90
2018-08-30T13:09:30.537Z,7.87
2018-08-30T13:11:59.707Z,8.05
2018-08-30T13:14:28.338Z,20.72
2018-08-30T13:16:56.564Z,8.30
2018-08-30T13:19:25.019Z,10.98
2018-08-30T13:21:52.940Z,7.90
2018-08-30T13:24:21.686Z,8.83
2018-08-30T13:26:49.482Z,11.40
2018-08-30T13:29:17.742Z,8.50
2018-08-30T13:31:45.844Z,14.07
2018-08-30T13:34:14.820Z,11.93
2018-08-30T13:36:42.665Z,8.67
2018-08-30T13:39:13.082Z,10.23
2018-08-30T13:41:41.421Z,9.33
2018-08-30T13:44:10.302Z,10.27
2018-08-30T13:46:39.482Z,11.07
2018-08-30T13:49:07.584Z,10.47
2018-08-30T13:51:35.691Z,9.77
2018-08-30T13:54:05.128Z,10.67
2018-08-30T13:56:33.075Z,11.40
2018-08-30T13:59:00.948Z,10.33
2018-08-30T14:01:29.450Z,10.47
2018-08-30T14:03:57.420Z,10.03
2018-08-30T14:06:25.414Z,10.53
2018-08-30T14:08:54.794Z,9.10
2018-08-30T14:11:23.050Z,8.70
2018-08-30T14:13:50.957Z,10.93
2018-08-30T14:16:18.716Z,9.50
2018-08-30T14:18:47.074Z,10.27
2018-08-30T14:21:15.000Z,10.87
2018-08-30T14:23:42.871Z,9.40
2018-08-30T14:26:10.768Z,11.23
2018-08-30T14:28:38.589Z,11.30
2018-08-30T14:31:06.472Z,10.37
2018-08-30T14:33:34.383Z,12.80
2018-08-30T14:36:02.362Z,12.17
2018-08-30T14:38:30.266Z,9.13
2018-08-30T14:40:58.958Z,14.73
2018-08-30T14:43:27.103Z,10.47
2018-08-30T14:45:55.118Z,10.17
2018-08-30T14:48:23.079Z,11.13
2018-08-30T14:50:51.041Z,8.97
2018-08-30T14:53:20.007Z,8.70
2018-08-30T14:55:47.964Z,12.53
2018-08-30T14:58:16.059Z,9.07
2018-08-30T15:00:47.056Z,12.50
2018-08-30T15:03:16.275Z,10.30
2018-08-30T15:05:44.296Z,10.53
2018-08-30T15:08:12.166Z,12.60
2018-08-30T15:10:40.080Z,10.97
2018-08-30T15:13:07.996Z,10.50
2018-08-30T15:15:35.863Z,13.63
2018-08-30T15:18:10.414Z,9.63
2018-08-30T15:20:38.326Z,12.20
2018-08-30T15:23:06.492Z,10.57
2018-08-30T15:25:37.182Z,11.43
2018-08-30T15:28:09.145Z,10.03
2018-08-30T15:30:37.099Z,10.40
2018-08-30T15:33:05.274Z,9.97
2018-08-30T15:35:33.141Z,11.00
2018-08-30T15:38:01.040Z,10.67
2018-08-30T15:40:31.686Z,12.17
2018-08-30T15:43:10.480Z,9.93
2018-08-30T15:45:38.508Z,9.80
2018-08-30T15:48:06.452Z,11.23
2018-08-30T15:50:34.420Z,11.03
2018-08-30T15:53:02.658Z,10.67
2018-08-30T15:55:42.734Z,11.07
2018-08-30T15:58:15.453Z,10.70
2018-08-30T16:00:47.257Z,11.77
2018-08-30T16:03:17.699Z,12.77
2018-08-30T16:05:46.627Z,12.40
2018-08-30T16:08:14.929Z,10.90
2018-08-30T16:10:42.787Z,12.53
2018-08-30T16:13:10.843Z,13.87
2018-08-30T16:15:38.707Z,12.93
2018-08-30T16:18:10.454Z,13.63
2018-08-30T16:20:41.878Z,12.17
2018-08-30T16:23:15.685Z,14.00
2018-08-30T16:25:43.690Z,13.57
2018-08-30T16:28:11.639Z,15.50
2018-08-30T16:30:39.739Z,15.47
2018-08-30T16:33:10.104Z,13.80
2018-08-30T16:35:50.316Z,17.00
2018-08-30T16:38:19.017Z,11.63
2018-08-30T16:40:47.147Z,13.77
2018-08-30T16:43:15.097Z,10.70
2018-08-30T16:45:43.867Z,31.93
2018-08-30T16:48:13.905Z,18.57
2018-08-30T16:50:43.012Z,14.23
2018-08-30T16:53:11.201Z,12.27
2018-08-30T16:55:39.424Z,12.60
2018-08-30T16:58:07.224Z,16.40
2018-08-30T17:00:35.188Z,14.13
2018-08-30T17:03:11.979Z,12.83
2018-08-30T17:05:43.545Z,23.27
2018-08-30T17:08:11.333Z,10.83
2018-08-30T17:10:39.292Z,10.83
2018-08-30T17:13:07.308Z,10.90
2018-08-30T17:15:35.192Z,12.00
2018-08-30T17:18:08.061Z,13.43
2018-08-30T17:20:42.958Z,13.00
2018-08-30T17:23:11.443Z,13.83
2018-08-30T17:25:39.793Z,14.20
2018-08-30T17:28:10.918Z,15.47
2018-08-30T17:30:45.651Z,12.60
2018-08-30T17:33:13.982Z,11.87
2018-08-30T17:35:41.873Z,11.53
2018-08-30T17:38:09.757Z,11.73
2018-08-30T17:40:37.721Z,14.03
2018-08-30T17:43:13.545Z,14.10
2018-08-30T17:45:41.616Z,12.23
2018-08-30T17:48:09.579Z,14.30
2018-08-30T17:50:37.642Z,14.60
2018-08-30T17:53:05.522Z,13.47
2018-08-30T17:55:34.492Z,12.17
2018-08-30T17:58:02.462Z,12.60
2018-08-30T18:00:36.413Z,19.03
2018-08-30T18:03:07.102Z,14.43
2018-08-30T18:05:35.394Z,13.07
2018-08-30T18:08:03.491Z,10.87
2018-08-30T18:10:31.418Z,14.27
2018-08-30T18:12:59.311Z,14.80
2018-08-30T18:15:28.843Z,14.27
2018-08-30T18:18:03.708Z,18.20
2018-08-30T18:20:33.944Z,17.03
2018-08-30T18:23:07.061Z,20.93
2018-08-30T18:25:34.934Z,15.37
2018-08-30T18:28:03.048Z,15.10
2018-08-30T18:30:30.962Z,14.10
2018-08-30T18:32:58.870Z,14.87
2018-08-30T18:35:30.725Z,11.90
2018-08-30T18:37:58.828Z,14.33
2018-08-30T18:40:26.830Z,15.87
2018-08-30T18:42:54.937Z,13.37
2018-08-30T18:45:22.963Z,14.10
2018-08-30T18:47:51.971Z,12.13
2018-08-30T18:50:25.445Z,16.17
2018-08-30T18:52:58.593Z,13.57
2018-08-30T18:55:28.404Z,14.47
2018-08-30T18:57:56.929Z,12.13
2018-08-30T19:00:32.996Z,13.30
2018-08-30T19:03:01.994Z,13.60
2018-08-30T19:05:32.434Z,15.07
2018-08-30T19:08:01.788Z,12.70
2018-08-30T19:10:32.632Z,14.23
2018-08-30T19:13:02.715Z,14.30
2018-08-30T19:15:36.772Z,16.30
2018-08-30T19:18:10.983Z,14.50
2018-08-30T19:20:40.785Z,14.43
2018-08-30T19:23:09.084Z,20.47
2018-08-30T19:25:38.012Z,15.10
2018-08-30T19:28:07.453Z,14.77
2018-08-30T19:30:36.048Z,16.50
2018-08-30T19:33:05.056Z,17.53
2018-08-30T19:35:40.153Z,22.67
2018-08-30T19:38:08.466Z,22.17
2018-08-30T19:40:43.828Z,18.53
2018-08-30T19:43:12.326Z,33.27
2018-08-30T19:45:41.185Z,28.67
2018-08-30T19:48:09.162Z,20.53
2018-08-30T19:50:37.660Z,21.03
2018-08-30T19:53:06.476Z,19.77
2018-08-30T19:55:35.658Z,17.87
2018-08-30T19:58:06.384Z,18.67
2018-08-30T20:00:34.902Z,17.53
2018-08-30T20:03:02.896Z,17.60
2018-08-30T20:05:32.124Z,20.77
2018-08-30T20:08:00.773Z,18.67
2018-08-30T20:10:29.268Z,25.13
2018-08-30T20:12:57.608Z,27.77
2018-08-30T20:15:28.070Z,20.30
2018-08-30T20:18:01.033Z,21.87
2018-08-30T20:20:32.266Z,26.73
2018-08-30T20:23:03.694Z,70.53
2018-08-30T20:25:35.612Z,49.23
2018-08-30T20:28:04.933Z,22.90
2018-08-30T20:30:33.674Z,20.93
2018-08-30T20:33:01.991Z,25.43
2018-08-30T20:35:29.990Z,24.87
2018-08-30T20:37:58.177Z,19.70
2018-08-30T20:40:26.445Z,19.13
2018-08-30T20:42:54.555Z,19.33
2018-08-30T20:45:22.556Z,16.63
2018-08-30T20:47:50.740Z,19.73
2018-08-30T20:50:20.017Z,19.63
2018-08-30T20:52:48.654Z,20.03
2018-08-30T20:55:17.309Z,19.80
2018-08-30T20:57:45.410Z,18.47
2018-08-30T21:00:14.016Z,18.27
2018-08-30T21:02:43.276Z,19.13
2018-08-30T21:05:11.326Z,16.07
2018-08-30T21:07:40.057Z,19.03
2018-08-30T21:10:08.526Z,17.47
2018-08-30T21:12:36.558Z,18.60
2018-08-30T21:15:06.458Z,13.70
2018-08-30T21:17:35.387Z,15.17
2018-08-30T21:20:03.479Z,18.00
2018-08-30T21:22:33.503Z,17.57
2018-08-30T21:25:01.420Z,19.63
2018-08-30T21:27:30.160Z,17.40
2018-08-30T21:30:01.023Z,15.53
2018-08-30T21:32:28.997Z,17.60
2018-08-30T21:34:56.949Z,18.93
2018-08-30T21:37:24.968Z,17.07
2018-08-30T21:39:53.028Z,15.30
2018-08-30T21:42:21.214Z,15.57
2018-08-30T21:44:49.485Z,15.60
2018-08-30T21:47:18.293Z,18.17
2018-08-30T21:49:46.155Z,18.37
2018-08-30T21:52:14.079Z,14.67
2018-08-30T21:54:42.017Z,20.60
2018-08-30T21:57:10.275Z,25.47
2018-08-30T21:59:38.354Z,20.90
2018-08-30T22:02:06.284Z,13.00
2018-08-30T22:04:34.167Z,16.90
2018-08-30T22:07:02.075Z,16.57
2018-08-30T22:09:30.363Z,18.60
2018-08-30T22:11:58.292Z,18.97
2018-08-30T22:14:26.356Z,18.70
2018-08-30T22:16:54.431Z,14.57
2018-08-30T22:19:22.609Z,16.47
2018-08-30T22:21:50.662Z,18.60
2018-08-30T22:24:18.642Z,14.93
2018-08-30T22:26:46.531Z,17.20
2018-08-30T22:29:14.947Z,16.80
2018-08-30T22:31:42.851Z,19.27
2018-08-30T22:34:10.753Z,22.57
2018-08-30T22:36:38.685Z,18.00
2018-08-30T22:39:06.897Z,21.70
2018-08-30T22:41:34.855Z,15.57
2018-08-30T22:44:02.989Z,16.23
2018-08-30T22:46:32.197Z,21.53
2018-08-30T22:49:00.135Z,15.83
2018-08-30T22:51:28.037Z,16.17
2018-08-30T22:53:56.152Z,15.90
2018-08-30T22:56:24.062Z,17.23
2018-08-30T22:58:52.080Z,16.57
2018-08-30T23:01:20.830Z,20.03
2018-08-30T23:03:48.783Z,16.33
2018-08-30T23:06:16.676Z,19.20
2018-08-30T23:08:44.635Z,16.83
2018-08-30T23:11:12.619Z,16.07
2018-08-30T23:13:41.763Z,18.90
2018-08-30T23:16:09.940Z,18.30
2018-08-30T23:18:37.870Z,14.90
2018-08-30T23:21:05.985Z,16.83
2018-08-30T23:23:33.914Z,15.60
2018-08-30T23:26:01.853Z,20.57
2018-08-30T23:28:29.736Z,20.63
2018-08-30T23:30:57.635Z,17.17
2018-08-30T23:33:25.733Z,15.37
2018-08-30T23:35:53.714Z,18.23
2018-08-30T23:38:21.698Z,19.90
2018-08-30T23:40:49.599Z,17.93
2018-08-30T23:43:17.551Z,13.83
2018-08-30T23:45:47.036Z,14.90
2018-08-30T23:48:15.115Z,14.17
2018-08-30T23:50:43.037Z,13.37
2018-08-30T23:53:11.023Z,18.70
2018-08-30T23:55:38.874Z,18.13
2018-08-30T23:58:12.413Z,15.33
